createdAt,value
2023-05-21T00:02:05.354Z,17.50
2023-05-21T00:05:13.761Z,17.39
2023-05-21T00:08:16.857Z,17.37
2023-05-21T00:11:19.476Z,17.31
2023-05-21T00:14:22.900Z,17.26
2023-05-21T00:17:26.222Z,17.36
2023-05-21T00:20:29.339Z,17.32
2023-05-21T00:23:36.485Z,17.37
2023-05-21T00:26:38.507Z,17.28
2023-05-21T00:29:43.544Z,17.25
2023-05-21T00:32:47.752Z,17.23
2023-05-21T00:35:50.162Z,17.18
2023-05-21T00:38:52.297Z,17.05
2023-05-21T00:41:56.953Z,17.05
2023-05-21T00:45:00.019Z,17.02
2023-05-21T00:48:04.226Z,17.00
2023-05-21T00:51:07.658Z,16.88
2023-05-21T00:54:11.237Z,16.86
2023-05-21T00:57:14.455Z,16.87
2023-05-21T01:00:18.539Z,16.83
2023-05-21T01:03:21.044Z,16.85
2023-05-21T01:06:23.743Z,16.76
2023-05-21T01:09:26.730Z,16.66
2023-05-21T01:12:31.144Z,16.69
2023-05-21T01:15:33.384Z,16.69
2023-05-21T01:18:38.397Z,16.71
2023-05-21T01:21:44.364Z,16.69
2023-05-21T01:24:47.816Z,16.66
2023-05-21T01:27:50.407Z,16.67
2023-05-21T01:30:54.787Z,16.67
2023-05-21T01:34:01.158Z,16.66
2023-05-21T01:37:25.903Z,16.63
2023-05-21T01:40:46.616Z,16.60
2023-05-21T01:43:50.692Z,16.59
2023-05-21T01:46:54.562Z,16.48
2023-05-21T01:49:57.228Z,16.43
2023-05-21T01:53:01.128Z,16.37
2023-05-21T01:56:06.236Z,16.38
2023-05-21T01:59:10.249Z,16.36
2023-05-21T02:02:13.057Z,16.22
2023-05-21T02:05:15.592Z,16.20
2023-05-21T02:08:19.765Z,16.14
2023-05-21T02:11:22.379Z,16.18
2023-05-21T02:14:27.079Z,16.09
2023-05-21T02:17:34.222Z,16.03
2023-05-21T02:20:38.011Z,16.01
2023-05-21T02:23:41.732Z,16.03
2023-05-21T02:26:43.899Z,15.96
2023-05-21T02:29:46.556Z,15.91
2023-05-21T02:32:49.189Z,15.89
2023-05-21T02:35:53.852Z,15.93
2023-05-21T02:38:57.786Z,15.78
2023-05-21T02:42:00.446Z,15.77
2023-05-21T02:45:03.287Z,15.76
2023-05-21T02:48:06.121Z,15.80
2023-05-21T02:51:09.777Z,15.77
2023-05-21T02:54:13.287Z,15.75
2023-05-21T02:57:15.309Z,15.66
2023-05-21T03:00:17.751Z,15.74
2023-05-21T03:03:20.011Z,15.70
2023-05-21T03:06:22.835Z,15.70
2023-05-21T03:09:24.862Z,15.66
2023-05-21T03:12:27.282Z,15.66
2023-05-21T03:15:33.314Z,15.60
2023-05-21T03:18:35.825Z,15.62
2023-05-21T03:21:38.075Z,15.63
2023-05-21T03:24:41.478Z,15.64
2023-05-21T03:27:44.079Z,15.61
2023-05-21T03:30:49.709Z,15.64
2023-05-21T03:33:53.894Z,15.65
2023-05-21T03:36:56.579Z,15.71
2023-05-21T03:39:58.772Z,15.63
2023-05-21T03:43:01.207Z,15.63
2023-05-21T03:46:04.779Z,15.67
2023-05-21T03:49:09.806Z,15.73
2023-05-21T03:52:12.755Z,15.81
2023-05-21T03:55:15.683Z,15.91
2023-05-21T03:58:17.974Z,16.08
2023-05-21T04:01:24.156Z,16.18
2023-05-21T04:04:29.437Z,16.31
2023-05-21T04:07:31.807Z,16.49
2023-05-21T04:10:35.634Z,16.59
2023-05-21T04:13:38.533Z,16.75
2023-05-21T04:16:44.031Z,16.94
2023-05-21T04:19:46.355Z,17.08
2023-05-21T04:22:49.256Z,17.50
2023-05-21T04:25:51.413Z,17.95
2023-05-21T04:28:55.443Z,18.09
2023-05-21T04:31:59.354Z,18.38
2023-05-21T04:35:02.049Z,18.70
2023-05-21T04:38:06.025Z,19.15
2023-05-21T04:41:11.778Z,20.32
2023-05-21T04:44:14.960Z,22.40
2023-05-21T04:47:21.007Z,24.24
2023-05-21T04:50:24.309Z,26.02
2023-05-21T04:53:26.651Z,26.91
2023-05-21T04:56:29.617Z,27.91
2023-05-21T04:59:32.207Z,28.62
2023-05-21T05:02:34.393Z,29.27
2023-05-21T05:05:37.042Z,29.78
2023-05-21T05:08:39.283Z,29.96
2023-05-21T05:11:44.875Z,30.17
2023-05-21T05:14:47.017Z,30.55
2023-05-21T05:17:50.671Z,31.04
2023-05-21T05:20:52.778Z,31.38
2023-05-21T05:23:55.432Z,31.51
2023-05-21T05:26:58.297Z,31.27
2023-05-21T05:30:00.794Z,31.60
2023-05-21T05:33:03.093Z,31.63
2023-05-21T05:36:05.709Z,31.61
2023-05-21T05:39:07.741Z,32.25
2023-05-21T05:42:10.298Z,32.49
2023-05-21T05:45:12.539Z,32.92
2023-05-21T05:48:17.023Z,33.09
2023-05-21T05:51:19.296Z,33.25
2023-05-21T05:54:21.676Z,32.87
2023-05-21T05:57:23.821Z,33.29
2023-05-21T06:00:27.151Z,32.23
2023-05-21T06:03:29.849Z,32.50
2023-05-21T06:06:32.133Z,32.35
2023-05-21T06:09:34.438Z,32.50
2023-05-21T06:12:36.521Z,33.16
2023-05-21T06:15:43.103Z,33.07
2023-05-21T06:18:45.469Z,33.20
2023-05-21T06:21:48.181Z,32.91
2023-05-21T06:24:50.385Z,33.15
2023-05-21T06:27:52.893Z,33.41
2023-05-21T06:30:55.228Z,34.10
2023-05-21T06:33:57.702Z,34.16
2023-05-21T06:37:01.213Z,34.09
2023-05-21T06:40:04.101Z,33.81
2023-05-21T06:43:06.714Z,33.59
2023-05-21T06:46:30.329Z,33.86
2023-05-21T06:49:32.869Z,34.61
2023-05-21T06:52:35.460Z,34.43
2023-05-21T06:55:38.315Z,34.97
2023-05-21T06:58:41.553Z,34.72
2023-05-21T07:01:43.908Z,35.18
2023-05-21T07:04:46.727Z,35.36
2023-05-21T07:07:48.769Z,35.39
2023-05-21T07:10:51.163Z,35.72
2023-05-21T07:13:53.377Z,35.65
2023-05-21T07:16:56.010Z,35.52
2023-05-21T07:19:58.136Z,36.28
2023-05-21T07:23:00.802Z,35.54
2023-05-21T07:26:02.831Z,35.15
2023-05-21T07:29:05.561Z,35.04
2023-05-21T07:32:08.494Z,34.58
2023-05-21T07:35:11.229Z,34.33
2023-05-21T07:38:13.625Z,34.33
2023-05-21T07:41:18.445Z,34.18
2023-05-21T07:44:21.397Z,33.64
2023-05-21T07:47:23.998Z,32.57
2023-05-21T07:50:26.774Z,31.72
2023-05-21T07:53:32.322Z,31.51
2023-05-21T07:56:34.804Z,30.59
2023-05-21T07:59:37.632Z,30.51
2023-05-21T08:02:40.626Z,30.13
2023-05-21T08:05:48.975Z,28.99
2023-05-21T08:08:51.789Z,28.58
2023-05-21T08:11:54.308Z,28.31
2023-05-21T08:14:59.437Z,27.78
2023-05-21T08:18:02.453Z,27.31
2023-05-21T08:21:05.900Z,27.23
2023-05-21T08:24:08.545Z,27.34
2023-05-21T08:27:10.708Z,27.31
2023-05-21T08:30:13.418Z,26.93
2023-05-21T08:33:15.656Z,26.54
2023-05-21T08:36:19.411Z,26.24
2023-05-21T08:39:22.067Z,26.01
2023-05-21T08:45:41.500Z,26.00
2023-05-21T08:48:44.583Z,25.85
2023-05-21T08:51:47.132Z,25.77
2023-05-21T08:54:51.167Z,26.00
2023-05-21T08:57:54.040Z,26.27
2023-05-21T09:00:57.772Z,26.24
2023-05-21T09:04:12.308Z,26.41
2023-05-21T09:07:24.701Z,26.62
2023-05-21T09:10:35.854Z,26.46
2023-05-21T09:13:39.184Z,26.13
2023-05-21T09:16:42.389Z,25.87
2023-05-21T09:20:05.146Z,26.11
2023-05-21T09:23:12.415Z,26.45
2023-05-21T09:26:15.163Z,26.79
2023-05-21T09:29:17.294Z,26.73
2023-05-21T09:32:19.864Z,26.64
2023-05-21T09:35:22.141Z,26.85
2023-05-21T09:38:27.629Z,26.43
2023-05-21T09:41:33.713Z,26.16
2023-05-21T09:44:36.162Z,26.54
2023-05-21T09:47:43.523Z,26.35
2023-05-21T09:50:46.063Z,26.49
2023-05-21T09:53:51.991Z,26.45
2023-05-21T09:56:54.692Z,26.65
2023-05-21T09:59:56.865Z,26.59
2023-05-21T10:03:06.230Z,26.60
2023-05-21T10:06:09.972Z,26.69
2023-05-21T10:09:13.852Z,26.76
2023-05-21T10:12:17.797Z,26.63
2023-05-21T10:15:22.019Z,26.74
2023-05-21T10:18:24.727Z,26.78
2023-05-21T10:21:27.517Z,26.81
2023-05-21T10:24:30.118Z,26.97
2023-05-21T10:27:32.900Z,26.89
2023-05-21T10:30:36.309Z,26.93
2023-05-21T10:33:38.734Z,26.77
2023-05-21T10:36:41.310Z,26.85
2023-05-21T10:39:43.688Z,26.69
2023-05-21T10:42:49.002Z,26.75
2023-05-21T10:45:54.022Z,27.21
2023-05-21T10:49:11.883Z,26.96
2023-05-21T10:52:21.492Z,26.89
2023-05-21T10:55:23.779Z,26.88
2023-05-21T10:58:44.670Z,26.67
2023-05-21T11:01:47.572Z,26.70
2023-05-21T11:04:57.767Z,27.00
2023-05-21T11:08:01.648Z,27.36
2023-05-21T11:11:04.063Z,27.53
2023-05-21T11:14:25.897Z,27.52
2023-05-21T11:17:38.953Z,27.60
2023-05-21T11:20:44.733Z,27.98
2023-05-21T11:23:59.078Z,27.58
2023-05-21T11:27:04.476Z,27.75
2023-05-21T11:30:10.842Z,27.93
2023-05-21T11:33:14.050Z,28.21
2023-05-21T11:36:16.408Z,28.07
2023-05-21T11:39:22.334Z,27.92
2023-05-21T11:42:28.808Z,27.79
2023-05-21T11:45:32.830Z,27.71
2023-05-21T11:48:36.698Z,28.02
2023-05-21T11:51:40.412Z,28.05
2023-05-21T11:54:48.401Z,27.99
2023-05-21T11:57:52.801Z,27.98
2023-05-21T12:00:55.020Z,27.80
2023-05-21T12:03:57.656Z,27.65
2023-05-21T12:07:03.495Z,27.80
2023-05-21T12:10:06.698Z,27.56
2023-05-21T12:13:08.762Z,27.77
2023-05-21T12:16:11.876Z,27.86
2023-05-21T12:19:17.357Z,27.95
2023-05-21T12:22:19.968Z,28.14
2023-05-21T12:25:22.300Z,28.12
2023-05-21T12:28:25.135Z,28.05
2023-05-21T12:31:30.030Z,27.83
2023-05-21T12:34:39.009Z,27.76
2023-05-21T12:37:41.157Z,28.04
2023-05-21T12:40:45.415Z,27.99
2023-05-21T12:43:47.565Z,28.10
2023-05-21T12:46:50.933Z,28.37
2023-05-21T12:50:03.263Z,28.22
2023-05-21T12:53:10.841Z,28.04
2023-05-21T12:56:13.574Z,28.09
2023-05-21T12:59:16.120Z,27.59
2023-05-21T13:02:37.238Z,27.56
2023-05-21T13:05:40.725Z,27.77
2023-05-21T13:08:42.783Z,27.83
2023-05-21T13:11:45.171Z,27.94
2023-05-21T13:14:47.167Z,27.95
2023-05-21T13:17:50.681Z,27.89
2023-05-21T13:20:53.835Z,27.82
2023-05-21T13:23:56.187Z,27.95
2023-05-21T13:26:58.364Z,27.71
2023-05-21T13:30:01.057Z,27.43
2023-05-21T13:33:05.455Z,27.21
2023-05-21T13:36:07.801Z,27.10
2023-05-21T13:39:09.795Z,27.01
2023-05-21T13:42:12.112Z,27.17
2023-05-21T13:45:14.906Z,27.49
2023-05-21T13:48:17.368Z,27.59
2023-05-21T13:51:34.518Z,27.60
2023-05-21T13:54:40.526Z,27.55
2023-05-21T13:57:42.723Z,27.46
2023-05-21T14:00:45.132Z,27.20
2023-05-21T14:03:47.523Z,26.87
2023-05-21T14:06:49.880Z,26.69
2023-05-21T14:09:52.624Z,26.70
2023-05-21T14:12:59.177Z,26.86
2023-05-21T14:16:07.416Z,26.78
2023-05-21T14:19:09.567Z,26.70
2023-05-21T14:22:11.917Z,26.62
2023-05-21T14:25:14.004Z,26.47
2023-05-21T14:28:16.317Z,26.48
2023-05-21T14:31:19.109Z,26.47
2023-05-21T14:34:21.539Z,26.49
2023-05-21T14:37:23.635Z,26.45
2023-05-21T14:40:26.100Z,26.50
2023-05-21T14:43:28.281Z,26.39
2023-05-21T14:46:30.938Z,26.35
2023-05-21T14:49:33.209Z,26.22
2023-05-21T14:52:35.549Z,26.37
2023-05-21T14:55:38.378Z,26.48
2023-05-21T14:58:41.140Z,26.57
2023-05-21T15:01:43.452Z,26.66
2023-05-21T15:04:45.866Z,26.46
2023-05-21T15:07:47.869Z,26.37
2023-05-21T15:10:50.247Z,26.18
2023-05-21T15:13:52.247Z,25.93
2023-05-21T15:16:54.720Z,25.65
2023-05-21T15:19:56.878Z,25.52
2023-05-21T15:23:12.733Z,25.55
2023-05-21T15:26:18.798Z,25.53
2023-05-21T15:29:21.184Z,25.71
2023-05-21T15:32:23.325Z,25.70
2023-05-21T15:35:25.986Z,25.64
2023-05-21T15:38:28.127Z,25.63
2023-05-21T15:41:34.874Z,25.61
2023-05-21T15:44:37.306Z,25.60
2023-05-21T15:47:42.667Z,25.48
2023-05-21T15:50:45.262Z,25.30
2023-05-21T15:53:47.673Z,25.06
2023-05-21T15:56:49.978Z,24.92
2023-05-21T15:59:52.897Z,24.93
2023-05-21T16:02:55.081Z,24.80
2023-05-21T16:05:57.515Z,24.79
2023-05-21T16:08:59.911Z,24.80
2023-05-21T16:12:02.380Z,24.91
2023-05-21T16:15:04.936Z,24.90
2023-05-21T16:18:08.520Z,24.88
2023-05-21T16:21:11.060Z,24.83
2023-05-21T16:24:13.430Z,24.69
2023-05-21T16:27:15.489Z,24.81
2023-05-21T16:30:17.924Z,24.66
2023-05-21T16:33:19.943Z,24.72
2023-05-21T16:36:22.371Z,24.68
2023-05-21T16:39:24.496Z,24.62
2023-05-21T16:42:27.079Z,24.53
2023-05-21T16:45:34.980Z,24.38
2023-05-21T16:48:39.322Z,24.29
2023-05-21T16:51:41.474Z,24.23
2023-05-21T16:54:48.624Z,24.16
2023-05-21T16:57:50.700Z,24.12
2023-05-21T17:00:53.152Z,23.99
2023-05-21T17:03:56.546Z,24.00
2023-05-21T17:06:58.960Z,23.88
2023-05-21T17:10:01.073Z,23.74
2023-05-21T17:13:20.784Z,23.90
2023-05-21T17:16:24.950Z,23.74
2023-05-21T17:19:27.606Z,23.62
2023-05-21T17:22:29.724Z,23.51
2023-05-21T17:25:34.317Z,23.56
2023-05-21T17:28:36.923Z,23.46
2023-05-21T17:31:39.379Z,23.45
2023-05-21T17:34:41.428Z,23.28
2023-05-21T17:37:43.870Z,23.15
2023-05-21T17:40:45.898Z,22.99
2023-05-21T17:43:48.272Z,22.87
2023-05-21T17:46:50.774Z,22.73
2023-05-21T17:49:53.174Z,22.65
2023-05-21T17:52:56.078Z,22.48
2023-05-21T17:55:58.538Z,22.35
2023-05-21T17:59:00.671Z,22.21
2023-05-21T18:02:03.109Z,22.08
2023-05-21T18:05:05.660Z,21.95
2023-05-21T18:08:09.885Z,21.88
2023-05-21T18:11:12.302Z,21.78
2023-05-21T18:14:14.282Z,21.64
2023-05-21T18:17:16.578Z,21.52
2023-05-21T18:20:18.656Z,21.41
2023-05-21T18:23:21.078Z,21.32
2023-05-21T18:26:23.200Z,21.21
2023-05-21T18:29:25.490Z,21.10
2023-05-21T18:32:27.714Z,21.01
2023-05-21T18:35:31.089Z,20.95
2023-05-21T18:38:33.743Z,20.82
2023-05-21T18:41:37.245Z,20.71
2023-05-21T18:44:39.545Z,20.62
2023-05-21T18:47:42.977Z,20.53
2023-05-21T18:50:45.130Z,20.43
2023-05-21T18:53:47.705Z,20.37
2023-05-21T18:56:49.672Z,20.24
2023-05-21T18:59:52.022Z,20.31
2023-05-21T19:02:54.894Z,20.09
2023-05-21T19:05:57.501Z,19.92
2023-05-21T19:08:59.526Z,19.85
2023-05-21T19:12:02.110Z,19.78
2023-05-21T19:15:04.446Z,19.79
2023-05-21T19:18:06.972Z,19.73
2023-05-21T19:21:09.266Z,19.52
2023-05-21T19:24:11.758Z,19.46
2023-05-21T19:27:13.805Z,19.36
2023-05-21T19:30:16.282Z,19.32
2023-05-21T19:33:18.422Z,19.15
2023-05-21T19:36:21.275Z,18.99
2023-05-21T19:39:23.277Z,18.98
2023-05-21T19:42:25.712Z,19.05
2023-05-21T19:45:27.719Z,18.89
2023-05-21T19:48:29.984Z,18.91
2023-05-21T19:51:32.400Z,18.99
2023-05-21T19:54:34.902Z,18.75
2023-05-21T19:57:37.216Z,18.86
2023-05-21T20:00:40.173Z,18.77
2023-05-21T20:03:44.854Z,18.60
2023-05-21T20:06:46.970Z,18.45
2023-05-21T20:09:49.292Z,18.36
2023-05-21T20:12:51.333Z,18.29
2023-05-21T20:15:53.661Z,18.28
2023-05-21T20:18:57.941Z,18.21
2023-05-21T20:22:00.378Z,18.29
2023-05-21T20:25:03.824Z,18.13
2023-05-21T20:28:08.033Z,18.08
2023-05-21T20:31:11.276Z,18.08
2023-05-21T20:34:13.654Z,17.98
2023-05-21T20:37:15.712Z,18.14
2023-05-21T20:40:19.007Z,18.16
2023-05-21T20:43:21.691Z,18.18
2023-05-21T20:46:25.641Z,18.09
2023-05-21T20:49:28.503Z,18.30
2023-05-21T20:52:31.054Z,18.24
2023-05-21T20:55:34.794Z,18.18
2023-05-21T20:58:39.861Z,18.19
2023-05-21T21:01:42.601Z,18.24
2023-05-21T21:04:45.901Z,18.32
2023-05-21T21:07:48.062Z,18.21
2023-05-21T21:10:50.546Z,18.07
2023-05-21T21:13:52.854Z,17.96
2023-05-21T21:16:55.292Z,17.94
2023-05-21T21:19:57.373Z,18.08
2023-05-21T21:22:59.776Z,18.04
2023-05-21T21:26:01.817Z,18.22
2023-05-21T21:29:04.162Z,18.21
2023-05-21T21:32:06.403Z,18.27
2023-05-21T21:35:10.090Z,18.23
2023-05-21T21:38:12.112Z,17.83
2023-05-21T21:41:14.763Z,17.81
2023-05-21T21:44:16.899Z,17.86
2023-05-21T21:47:19.227Z,17.80
2023-05-21T21:50:21.470Z,17.85
2023-05-21T21:53:23.809Z,18.09
2023-05-21T21:56:26.210Z,18.14
2023-05-21T21:59:28.609Z,18.24
2023-05-21T22:02:30.687Z,18.38
2023-05-21T22:05:33.969Z,18.34
2023-05-21T22:08:35.967Z,18.46
2023-05-21T22:11:38.471Z,18.51
2023-05-21T22:14:40.490Z,18.57
2023-05-21T22:17:42.934Z,18.66
2023-05-21T22:20:46.104Z,18.69
2023-05-21T22:23:48.467Z,18.71
2023-05-21T22:26:50.555Z,18.77
2023-05-21T22:29:52.869Z,18.79
2023-05-21T22:32:56.623Z,18.84
2023-05-21T22:35:59.010Z,18.79
2023-05-21T22:39:01.055Z,18.76
2023-05-21T22:42:03.991Z,18.75
2023-05-21T22:45:06.768Z,18.75
2023-05-21T22:48:09.593Z,18.63
2023-05-21T22:51:11.879Z,18.55
2023-05-21T22:54:14.277Z,18.47
2023-05-21T22:57:16.373Z,18.48
2023-05-21T23:00:21.458Z,18.44
2023-05-21T23:03:23.538Z,18.33
2023-05-21T23:06:25.938Z,18.24
2023-05-21T23:09:27.979Z,18.18
2023-05-21T23:12:30.479Z,18.18
2023-05-21T23:15:32.589Z,18.20
2023-05-21T23:18:35.103Z,18.24
2023-05-21T23:21:37.353Z,18.22
2023-05-21T23:24:39.717Z,18.03
2023-05-21T23:27:41.741Z,17.93
2023-05-21T23:30:44.191Z,17.86
2023-05-21T23:33:46.301Z,17.79
2023-05-21T23:36:48.667Z,17.75
2023-05-21T23:39:51.406Z,17.61
2023-05-21T23:42:53.891Z,17.60
2023-05-21T23:45:55.896Z,17.53
2023-05-21T23:48:58.394Z,17.45
2023-05-21T23:52:01.496Z,17.55
2023-05-21T23:55:03.942Z,17.37
2023-05-21T23:58:06.034Z,17.34
